Flight Track Log - Related Links

Times and Time Zones

All times are in EST time to prevent confusion due to time zone crossing. See the N830QS flight status page for this flight to view local times or setup timezone preferences in your user account.

Time Position Orientation Groundspeed Altitude Reporting Facility
EST Latitude Longitude Course Direction KTS MPH feet Rate Location/Type
Tue 01:55:08 PM 40.8167 -74.1333 270° West 191 220 1,500  Level New York TRACON
Tue 01:56:08 PM 40.8167 -74.2000 270° West 196 226 4,400 3,400 Climbing New York TRACON
Tue 01:57:08 PM 40.8000 -74.2833 255° West 231 266 8,300 3,370 Climbing New York TRACON
Tue 01:58:50 PM 40.7514 -74.4089 243° Southwest 221 254 13,500 2,778 Climbing New York Center
Tue 01:59:50 PM 40.7119 -74.4753 246° West 248 285 15,800 2,600 Climbing New York Center
Tue 02:00:50 PM 40.6658 -74.5492 231° Southwest 253 291 18,700 1,600 Climbing New York Center
Tue 02:01:50 PM 40.6175 -74.6233 229° Southwest 259 298 19,000 150 Climbing New York Center
Tue 02:02:50 PM 40.5692 -74.6969 229° Southwest 259 298 19,000  Level New York Center
Tue 02:03:50 PM 40.5231 -74.7653 228° Southwest 259 298 19,000  Level New York Center
Tue 02:04:50 PM 40.4814 -74.8283 229° Southwest 259 298 19,000 -100 Level New York Center
Tue 02:05:50 PM 40.4331 -74.9019 229° Southwest 264 304 18,800 -1,000 Descending New York Center
Tue 02:06:50 PM 40.3867 -74.9753 230° Southwest 255 293 17,000 -900 Descending New York Center
Tue 02:07:50 PM 40.3383 -75.0458 228° Southwest 250 288 17,000  Level New York Center
Tue 02:08:50 PM 40.2897 -75.1219 230° Southwest 255 293 17,000  Level New York Center
Tue 02:09:50 PM 40.2411 -75.1950 229° Southwest 283 326 17,000  Level New York Center
Tue 02:10:50 PM 40.1861 -75.2731 227° Southwest 301 346 17,000  Level New York Center
Tue 02:11:50 PM 40.1264 -75.3614 229° Southwest 301 346 17,000  Level New York Center
Tue 02:12:50 PM 40.0756 -75.4367 229° Southwest 306 352 17,000  Level New York Center
Tue 02:13:50 PM 40.0156 -75.5250 228° Southwest 306 352 17,000  Level New York Center
Tue 02:14:50 PM 39.9689 -75.5947 229° Southwest 299 344 17,000  Level New York Center
Tue 02:15:50 PM 39.9133 -75.6803 230° Southwest 293 337 17,000  Level New York Center
Tue 02:16:50 PM 39.8728 -75.7558 235° Southwest 288 331 17,000 -100 Level New York Center
Tue 02:17:50 PM 39.8228 -75.8525 236° Southwest 288 331 16,800 -1,057 Descending New York Center
Tue 02:19:29 PM 39.7500 -76.0000 237° Southwest 285 328 14,200 -1,509 Descending Potomac TRACON
Tue 02:20:29 PM 39.7000 -76.0667 226° Southwest 261 300 12,800 -1,211 Descending Potomac TRACON
Tue 02:21:23 PM 39.6833 -76.1333 252° West 244 281 11,900 -1,368 Descending Potomac TRACON
Tue 02:22:23 PM 39.6333 -76.2000 226° Southwest 238 274 10,200 -1,700 Descending Potomac TRACON
Tue 02:23:23 PM 39.6000 -76.2833 243° Southwest 261 300 8,500 -1,686 Descending Potomac TRACON
Tue 02:24:24 PM 39.5333 -76.3333 210° Southwest 269 310 6,800 -1,722 Descending Potomac TRACON
Tue 02:25:18 PM 39.4833 -76.4000 226° Southwest 279 321 5,200 -900 Descending Potomac TRACON
Tue 02:26:24 PM 39.4000 -76.4333 197° South 286 329 5,000 -100 Descending Potomac TRACON
Tue 02:27:18 PM 39.3333 -76.4333 180° South 287 330 5,000 -167 Level Potomac TRACON
Tue 02:28:12 PM 39.2667 -76.4167 169° South 289 333 4,700 -500 Descending Potomac TRACON
Tue 02:29:18 PM 39.1833 -76.4167 180° South 259 298 4,000 -331 Descending Potomac TRACON
Tue 02:30:19 PM 39.1167 -76.4167 180° South 246 283 4,000  Level Potomac TRACON
Tue 02:31:19 PM 39.0500 -76.4500 201° Southwest 221 254 4,000  Level Potomac TRACON
Tue 02:32:19 PM 39.0000 -76.4833 207° Southwest 195 224 4,000  Level Potomac TRACON
Tue 02:33:19 PM 39.0000 -76.5167 270° West 147 169 4,000 -158 Level Potomac TRACON
Tue 02:34:13 PM 39.0333 -76.5333 339° North 132 152 3,700 -632 Descending Potomac TRACON
Tue 02:35:13 PM 39.0500 -76.5667 303° West 129 148 2,800 -700 Descending Potomac TRACON
Tue 02:36:13 PM 39.0833 -76.5833 339° North 100 115 2,300 -526 Descending Potomac TRACON
Tue 02:37:07 PM 39.1000 -76.6000 322° Northwest 102 117 1,800 -550 Descending Potomac TRACON
Tue 02:38:13 PM 39.1167 -76.6333 303° West 104 120 1,200 -600 Descending Potomac TRACON
Tue 02:39:07 PM 39.1500 -76.6500 339° North 112 129 600 -667 Descending Potomac TRACON

Login

Don't have an account? Register now (free) for customized features, flight alerts, and more!